createdAt,value
2022-10-21T00:00:50.975Z,6.23
2022-10-21T00:03:20.678Z,6.53
2022-10-21T00:05:49.080Z,6.63
2022-10-21T00:08:17.799Z,6.23
2022-10-21T00:10:46.213Z,6.43
2022-10-21T00:13:14.407Z,6.40
2022-10-21T00:15:42.627Z,5.47
2022-10-21T00:18:10.826Z,5.93
2022-10-21T00:20:42.696Z,6.60
2022-10-21T00:23:10.893Z,6.00
2022-10-21T00:25:39.978Z,5.93
2022-10-21T00:28:08.310Z,6.20
2022-10-21T00:30:36.456Z,6.10
2022-10-21T00:33:04.679Z,6.47
2022-10-21T00:35:35.219Z,6.83
2022-10-21T00:38:04.834Z,5.77
2022-10-21T00:40:33.265Z,6.17
2022-10-21T00:43:01.700Z,6.27
2022-10-21T00:45:30.532Z,7.33
2022-10-21T00:48:02.633Z,6.00
2022-10-21T00:50:37.469Z,6.13
2022-10-21T00:53:13.697Z,6.40
2022-10-21T00:55:47.944Z,6.80
2022-10-21T00:58:16.290Z,7.30
2022-10-21T01:00:44.567Z,6.43
2022-10-21T01:03:12.769Z,6.50
2022-10-21T01:05:41.174Z,7.00
2022-10-21T01:08:10.843Z,7.70
2022-10-21T01:10:39.490Z,6.10
2022-10-21T01:13:18.340Z,8.53
2022-10-21T01:15:51.483Z,7.40
2022-10-21T01:18:22.677Z,7.27
2022-10-21T01:21:02.138Z,6.60
2022-10-21T01:24:07.683Z,6.87
2022-10-21T01:27:02.702Z,6.60
2022-10-21T01:30:21.836Z,6.87
2022-10-21T01:33:23.610Z,7.23
2022-10-21T01:35:56.310Z,7.53
2022-10-21T01:38:30.309Z,6.60
2022-10-21T01:41:03.054Z,6.47
2022-10-21T01:43:37.277Z,6.30
2022-10-21T01:46:07.718Z,8.00
2022-10-21T01:48:40.103Z,7.43
2022-10-21T01:51:08.968Z,7.80
2022-10-21T01:53:40.420Z,7.50
2022-10-21T01:56:08.804Z,6.80
2022-10-21T01:58:37.301Z,7.03
2022-10-21T02:01:06.146Z,7.53
2022-10-21T02:03:37.282Z,6.97
2022-10-21T02:06:05.804Z,6.20
2022-10-21T02:08:33.940Z,7.07
2022-10-21T02:11:07.080Z,7.07
2022-10-21T02:13:38.551Z,7.03
2022-10-21T02:16:10.079Z,7.03
2022-10-21T02:18:39.650Z,6.80
2022-10-21T02:21:10.345Z,6.60
2022-10-21T02:23:43.803Z,6.43
2022-10-21T02:27:30.070Z,7.63
2022-10-21T02:29:59.698Z,7.00
2022-10-21T02:32:32.115Z,7.40
2022-10-21T02:35:14.484Z,8.13
2022-10-21T02:37:47.034Z,7.90
2022-10-21T02:40:18.103Z,6.77
2022-10-21T02:42:50.579Z,7.20
2022-10-21T02:45:19.065Z,6.97
2022-10-21T02:47:49.287Z,7.10
2022-10-21T02:50:18.865Z,7.90
2022-10-21T02:52:47.175Z,8.40
2022-10-21T02:55:15.324Z,7.13
2022-10-21T02:57:43.543Z,6.77
2022-10-21T03:00:13.819Z,7.57
2022-10-21T03:02:42.200Z,6.80
2022-10-21T03:05:12.797Z,7.43
2022-10-21T03:07:42.343Z,8.17
2022-10-21T03:10:10.824Z,6.33
2022-10-21T03:12:38.987Z,7.27
2022-10-21T03:15:08.365Z,7.17
2022-10-21T03:17:36.971Z,6.90
2022-10-21T03:20:06.607Z,7.60
2022-10-21T03:22:34.807Z,7.67
2022-10-21T03:25:04.439Z,6.40
2022-10-21T03:27:32.749Z,8.00
2022-10-21T03:30:00.896Z,6.93
2022-10-21T03:32:28.987Z,8.33
2022-10-21T03:34:57.060Z,8.10
2022-10-21T03:37:25.262Z,8.23
2022-10-21T03:39:53.318Z,7.10
2022-10-21T03:42:23.175Z,8.17
2022-10-21T03:44:51.246Z,6.90
2022-10-21T03:47:19.348Z,7.83
2022-10-21T03:49:47.486Z,7.47
2022-10-21T03:52:15.638Z,8.17
2022-10-21T03:54:43.761Z,6.87
2022-10-21T03:57:11.912Z,7.80
2022-10-21T03:59:41.390Z,8.53
2022-10-21T04:02:09.506Z,7.70
2022-10-21T04:04:37.895Z,9.30
2022-10-21T04:07:06.013Z,7.80
2022-10-21T04:09:34.052Z,9.00
2022-10-21T04:12:02.212Z,8.50
2022-10-21T04:14:30.298Z,9.07
2022-10-21T04:17:06.951Z,8.83
2022-10-21T04:19:35.577Z,8.20
2022-10-21T04:22:03.703Z,8.60
2022-10-21T04:24:31.796Z,9.20
2022-10-21T04:27:00.162Z,8.83
2022-10-21T04:29:28.333Z,9.40
2022-10-21T04:34:30.782Z,10.03
2022-10-21T04:37:01.153Z,8.77
2022-10-21T04:39:32.340Z,8.17
2022-10-21T04:42:00.450Z,9.43
2022-10-21T04:44:28.536Z,8.33
2022-10-21T04:46:56.665Z,9.57
2022-10-21T04:49:24.763Z,9.10
2022-10-21T04:51:54.198Z,9.60
2022-10-21T04:54:22.336Z,9.40
2022-10-21T04:56:50.439Z,8.70
2022-10-21T04:59:18.765Z,9.30
2022-10-21T05:01:46.873Z,9.70
2022-10-21T05:04:14.964Z,9.17
2022-10-21T05:06:43.048Z,9.60
2022-10-21T05:09:12.569Z,9.60
2022-10-21T05:11:40.761Z,8.67
2022-10-21T05:14:08.886Z,9.40
2022-10-21T05:16:37.034Z,9.20
2022-10-21T05:19:05.106Z,8.50
2022-10-21T05:21:33.230Z,9.20
2022-10-21T05:24:01.421Z,10.20
2022-10-21T05:26:31.041Z,8.73
2022-10-21T05:28:59.387Z,9.23
2022-10-21T05:31:27.498Z,9.10
2022-10-21T05:33:55.619Z,9.03
2022-10-21T05:36:24.236Z,11.10
2022-10-21T05:38:52.603Z,8.50
2022-10-21T05:41:20.939Z,9.60
2022-10-21T05:43:50.406Z,9.80
2022-10-21T05:46:18.617Z,9.43
2022-10-21T05:51:25.401Z,8.07
2022-10-21T05:53:53.856Z,10.00
2022-10-21T05:56:22.060Z,11.00
2022-10-21T05:58:52.086Z,10.70
2022-10-21T06:01:20.272Z,10.23
2022-10-21T06:03:48.426Z,10.63
2022-10-21T06:06:16.549Z,10.47
2022-10-21T06:08:44.676Z,12.63
2022-10-21T06:11:13.916Z,12.00
2022-10-21T06:13:42.359Z,12.07
2022-10-21T06:16:12.063Z,14.30
2022-10-21T06:18:40.402Z,11.70
2022-10-21T06:21:09.224Z,10.30
2022-10-21T06:23:37.529Z,9.90
2022-10-21T06:26:07.322Z,9.60
2022-10-21T06:28:37.336Z,9.70
2022-10-21T06:31:05.938Z,9.20
2022-10-21T06:33:35.554Z,10.70
2022-10-21T06:36:03.853Z,8.97
2022-10-21T06:38:33.677Z,10.70
2022-10-21T06:41:09.266Z,11.23
2022-10-21T06:43:40.538Z,9.33
2022-10-21T06:46:10.139Z,10.27
2022-10-21T06:48:39.566Z,9.93
2022-10-21T06:51:09.964Z,10.77
2022-10-21T06:53:39.313Z,11.07
2022-10-21T06:56:09.523Z,11.10
2022-10-21T06:58:37.749Z,9.43
2022-10-21T07:01:16.765Z,9.87
2022-10-21T07:03:57.640Z,10.50
2022-10-21T07:06:26.015Z,10.07
2022-10-21T07:09:01.404Z,9.60
2022-10-21T07:11:29.719Z,10.40
2022-10-21T07:13:57.887Z,8.80
2022-10-21T07:16:27.216Z,9.87
2022-10-21T07:18:56.875Z,10.33
2022-10-21T07:21:26.350Z,9.13
2022-10-21T07:23:56.649Z,10.10
2022-10-21T07:26:28.257Z,9.50
2022-10-21T07:28:58.368Z,9.40
2022-10-21T07:31:26.671Z,9.30
2022-10-21T07:33:54.898Z,9.47
2022-10-21T07:36:26.849Z,10.07
2022-10-21T07:38:55.707Z,9.50
2022-10-21T07:41:26.615Z,9.73
2022-10-21T07:43:54.882Z,9.83
2022-10-21T07:46:23.173Z,9.80
2022-10-21T07:48:51.830Z,9.27
2022-10-21T07:51:23.656Z,9.73
2022-10-21T07:53:56.439Z,8.87
2022-10-21T07:56:26.047Z,8.40
2022-10-21T07:58:54.386Z,8.70
2022-10-21T08:01:22.707Z,9.40
2022-10-21T08:03:50.943Z,9.30
2022-10-21T08:06:19.459Z,8.80
2022-10-21T08:08:47.769Z,9.00
2022-10-21T08:11:23.255Z,9.67
2022-10-21T08:13:51.412Z,9.43
2022-10-21T08:16:19.696Z,9.60
2022-10-21T08:18:48.076Z,9.53
2022-10-21T08:21:16.230Z,9.20
2022-10-21T08:23:44.496Z,8.40
2022-10-21T08:26:14.579Z,8.50
2022-10-21T08:28:44.496Z,9.50
2022-10-21T08:31:14.199Z,9.00
2022-10-21T08:33:42.433Z,12.90
2022-10-21T08:36:12.790Z,9.00
2022-10-21T08:38:40.896Z,9.70
2022-10-21T08:41:19.178Z,9.17
2022-10-21T08:43:51.097Z,8.60
2022-10-21T08:46:20.976Z,9.13
2022-10-21T08:48:53.327Z,9.70
2022-10-21T08:51:24.874Z,8.40
2022-10-21T08:53:52.988Z,8.80
2022-10-21T08:56:21.336Z,8.57
2022-10-21T08:58:52.115Z,9.27
2022-10-21T09:01:23.340Z,9.03
2022-10-21T09:03:56.171Z,8.40
2022-10-21T09:06:25.536Z,8.70
2022-10-21T09:09:07.540Z,9.10
2022-10-21T09:11:48.084Z,8.70
2022-10-21T09:14:41.410Z,8.83
2022-10-21T09:17:21.197Z,10.00
2022-10-21T09:19:53.703Z,9.77
2022-10-21T09:22:39.227Z,7.97
2022-10-21T09:25:20.294Z,8.60
2022-10-21T09:27:56.526Z,9.20
2022-10-21T09:30:26.910Z,8.93
2022-10-21T09:32:58.262Z,8.93
2022-10-21T09:35:33.461Z,9.87
2022-10-21T09:38:04.329Z,9.07
2022-10-21T09:40:33.972Z,9.30
2022-10-21T09:43:02.274Z,8.77
2022-10-21T09:45:34.178Z,8.83
2022-10-21T09:48:04.513Z,9.40
2022-10-21T09:50:32.910Z,8.50
2022-10-21T09:53:08.786Z,9.57
2022-10-21T09:55:36.895Z,9.23
2022-10-21T09:58:05.400Z,9.13
2022-10-21T10:00:48.086Z,8.90
2022-10-21T10:03:31.973Z,9.40
2022-10-21T10:06:00.103Z,9.20
2022-10-21T10:08:33.260Z,8.60
2022-10-21T10:11:15.651Z,8.30
2022-10-21T10:13:45.078Z,8.40
2022-10-21T10:16:23.966Z,8.73
2022-10-21T10:18:52.960Z,8.50
2022-10-21T10:21:22.035Z,7.73
2022-10-21T10:23:51.907Z,9.33
2022-10-21T10:26:29.160Z,9.03
2022-10-21T10:28:59.526Z,9.13
2022-10-21T10:31:31.828Z,8.30
2022-10-21T10:34:03.548Z,9.23
2022-10-21T10:36:35.271Z,8.10
2022-10-21T10:39:03.805Z,8.33
2022-10-21T10:41:36.202Z,8.40
2022-10-21T10:44:11.231Z,9.20
2022-10-21T10:46:40.860Z,9.60
2022-10-21T10:49:22.561Z,9.47
2022-10-21T10:52:07.092Z,7.87
2022-10-21T10:54:35.324Z,8.03
2022-10-21T10:57:05.508Z,8.17
2022-10-21T10:59:37.679Z,8.50
2022-10-21T11:02:24.598Z,8.90
2022-10-21T11:05:08.932Z,8.50
2022-10-21T11:07:40.461Z,8.00
2022-10-21T11:10:18.150Z,7.57
2022-10-21T11:12:46.318Z,8.20
2022-10-21T11:15:15.384Z,7.60
2022-10-21T11:17:48.562Z,9.10
2022-10-21T11:20:21.754Z,8.43
2022-10-21T11:22:55.264Z,7.70
2022-10-21T11:25:25.858Z,8.10
2022-10-21T11:28:03.097Z,8.20
2022-10-21T11:30:38.347Z,7.23
2022-10-21T11:33:14.433Z,7.27
2022-10-21T11:35:57.402Z,7.83
2022-10-21T11:39:09.542Z,7.80
2022-10-21T11:41:39.996Z,7.50
2022-10-21T11:44:16.554Z,7.37
2022-10-21T11:46:54.371Z,7.53
2022-10-21T11:49:37.368Z,7.37
2022-10-21T11:52:12.455Z,7.73
2022-10-21T11:55:08.946Z,8.00
2022-10-21T11:57:43.750Z,7.43
2022-10-21T12:00:14.231Z,7.50
2022-10-21T12:02:46.269Z,6.67
2022-10-21T12:05:23.542Z,7.37
2022-10-21T12:08:09.961Z,7.40
2022-10-21T12:10:41.027Z,7.33
2022-10-21T12:13:14.949Z,6.43
2022-10-21T12:15:46.144Z,7.17
2022-10-21T12:18:16.622Z,8.47
2022-10-21T12:20:49.040Z,8.33
2022-10-21T12:23:18.920Z,6.63
2022-10-21T12:25:55.851Z,7.47
2022-10-21T12:28:29.221Z,7.47
2022-10-21T12:31:01.761Z,7.07
2022-10-21T12:33:37.898Z,7.20
2022-10-21T12:36:44.249Z,6.97
2022-10-21T12:39:17.761Z,7.77
2022-10-21T12:41:47.244Z,7.63
2022-10-21T12:44:26.930Z,7.63
2022-10-21T12:46:56.547Z,7.13
2022-10-21T12:49:28.106Z,7.50
2022-10-21T12:52:04.643Z,6.67
2022-10-21T12:54:45.041Z,7.27
2022-10-21T12:57:23.915Z,7.57
2022-10-21T12:59:52.145Z,8.03
2022-10-21T13:02:30.521Z,7.00
2022-10-21T13:04:59.321Z,7.70
2022-10-21T13:07:37.275Z,6.97
2022-10-21T13:10:34.078Z,6.47
2022-10-21T13:13:35.733Z,7.23
2022-10-21T13:16:37.908Z,7.47
2022-10-21T13:19:07.059Z,8.60
2022-10-21T13:21:38.770Z,7.50
2022-10-21T13:24:16.223Z,7.03
2022-10-21T13:26:50.418Z,6.80
2022-10-21T13:29:45.487Z,8.20
2022-10-21T13:32:28.481Z,6.87
2022-10-21T13:35:33.329Z,6.90
2022-10-21T13:38:07.194Z,7.03
2022-10-21T13:40:46.697Z,7.00
2022-10-21T13:43:16.417Z,6.90
2022-10-21T13:45:49.112Z,7.73
2022-10-21T13:48:18.919Z,6.80
2022-10-21T13:50:48.858Z,7.30
2022-10-21T13:53:29.746Z,7.37
2022-10-21T13:56:01.915Z,7.20
2022-10-21T13:58:31.543Z,6.73
2022-10-21T14:01:13.180Z,8.53
2022-10-21T14:03:42.344Z,7.33
2022-10-21T14:06:11.013Z,7.70
2022-10-21T14:08:42.352Z,7.10
2022-10-21T14:11:18.727Z,8.40
2022-10-21T14:13:46.951Z,7.40
2022-10-21T14:16:22.841Z,7.43
2022-10-21T14:18:51.299Z,8.00
2022-10-21T14:21:22.312Z,8.20
2022-10-21T14:23:50.821Z,7.73
2022-10-21T14:26:20.491Z,7.87
2022-10-21T14:28:50.559Z,7.73
2022-10-21T14:31:19.267Z,8.10
2022-10-21T14:33:47.522Z,8.30
2022-10-21T14:36:19.762Z,7.83
2022-10-21T14:38:56.008Z,7.50
2022-10-21T14:41:27.693Z,9.30
2022-10-21T14:43:56.389Z,7.80
2022-10-21T14:46:24.690Z,9.30
2022-10-21T14:48:55.541Z,7.50
2022-10-21T14:51:23.953Z,8.63
2022-10-21T14:53:55.914Z,7.80
2022-10-21T14:56:30.744Z,8.47
2022-10-21T14:59:00.701Z,8.47
2022-10-21T15:01:29.159Z,7.70
2022-10-21T15:03:58.565Z,8.80
2022-10-21T15:06:28.071Z,8.30
2022-10-21T15:09:01.984Z,8.10
2022-10-21T15:11:40.238Z,8.17
2022-10-21T15:14:21.851Z,7.27
2022-10-21T15:16:53.441Z,8.90
2022-10-21T15:19:24.244Z,8.20
2022-10-21T15:21:55.638Z,8.17
2022-10-21T15:24:27.451Z,7.73
2022-10-21T15:26:59.657Z,7.60
2022-10-21T15:29:34.352Z,7.57
2022-10-21T15:32:02.829Z,7.60
2022-10-21T15:34:30.941Z,8.37
2022-10-21T15:36:59.144Z,8.27
2022-10-21T15:39:27.239Z,7.87
2022-10-21T15:41:57.567Z,8.17
2022-10-21T15:44:27.617Z,8.13
2022-10-21T15:47:00.621Z,9.30
2022-10-21T15:49:32.162Z,9.13
2022-10-21T15:52:00.245Z,10.80
2022-10-21T15:54:28.366Z,11.40
2022-10-21T15:56:57.990Z,10.37
2022-10-21T15:59:27.291Z,9.57
2022-10-21T16:01:55.508Z,8.33
2022-10-21T16:04:24.094Z,8.13
2022-10-21T16:06:52.753Z,7.93
2022-10-21T16:09:22.916Z,8.57
2022-10-21T16:11:59.472Z,8.30
2022-10-21T16:14:30.821Z,7.53
2022-10-21T16:16:59.670Z,8.43
2022-10-21T16:19:27.977Z,9.10
2022-10-21T16:21:56.153Z,9.53
2022-10-21T16:24:24.311Z,9.10
2022-10-21T16:26:52.540Z,9.60
2022-10-21T16:29:22.036Z,9.30
2022-10-21T16:31:51.593Z,9.43
2022-10-21T16:34:19.985Z,9.30
2022-10-21T16:36:48.091Z,9.53
2022-10-21T16:39:17.754Z,9.20
2022-10-21T16:41:45.882Z,9.10
2022-10-21T16:44:13.980Z,9.40
2022-10-21T16:46:43.233Z,10.30
2022-10-21T16:49:15.371Z,8.70
2022-10-21T16:51:43.528Z,10.17
2022-10-21T16:54:11.770Z,9.87
2022-10-21T16:56:39.966Z,11.00
2022-10-21T16:59:08.084Z,10.70
2022-10-21T17:01:36.294Z,10.57
2022-10-21T17:04:04.521Z,10.50
2022-10-21T17:06:33.966Z,10.17
2022-10-21T17:09:02.075Z,10.27
2022-10-21T17:11:33.232Z,10.80
2022-10-21T17:14:01.536Z,9.80
2022-10-21T17:16:29.683Z,10.73
2022-10-21T17:18:57.790Z,12.90
2022-10-21T17:21:27.080Z,13.27
2022-10-21T17:23:57.008Z,12.20
2022-10-21T17:26:25.416Z,12.90
2022-10-21T17:28:53.777Z,12.30
2022-10-21T17:31:23.439Z,13.13
2022-10-21T17:33:52.204Z,13.17
2022-10-21T17:36:20.399Z,13.07
2022-10-21T17:38:48.568Z,13.83
2022-10-21T17:41:20.324Z,13.27
2022-10-21T17:43:48.529Z,14.83
2022-10-21T17:46:19.196Z,13.90
2022-10-21T17:48:50.378Z,14.97
2022-10-21T17:51:18.672Z,13.47
2022-10-21T17:53:49.197Z,13.37
2022-10-21T17:56:18.843Z,14.30
2022-10-21T17:58:47.127Z,13.77
2022-10-21T18:01:15.317Z,14.70
2022-10-21T18:03:44.193Z,39.93
2022-10-21T18:06:13.023Z,20.10
2022-10-21T18:08:41.320Z,17.60
2022-10-21T18:11:10.629Z,15.20
2022-10-21T18:13:40.457Z,17.00
2022-10-21T18:16:10.362Z,16.20
2022-10-21T18:18:38.697Z,14.77
2022-10-21T18:21:08.252Z,14.40
2022-10-21T18:23:37.078Z,14.63
2022-10-21T18:26:05.907Z,14.73
2022-10-21T18:28:34.324Z,14.97
2022-10-21T18:31:03.874Z,15.90
2022-10-21T18:33:32.152Z,13.80
2022-10-21T18:36:08.454Z,16.03
2022-10-21T18:38:36.647Z,16.47
2022-10-21T18:41:19.658Z,15.80
2022-10-21T18:43:49.544Z,15.67
2022-10-21T18:46:19.186Z,16.30
2022-10-21T18:48:47.330Z,15.43
2022-10-21T18:51:16.559Z,16.20
2022-10-21T18:53:48.466Z,14.80
2022-10-21T18:56:18.534Z,14.73
2022-10-21T18:58:46.765Z,15.50
2022-10-21T19:01:15.956Z,16.77
2022-10-21T19:03:45.656Z,14.13
2022-10-21T19:06:18.612Z,13.47
2022-10-21T19:08:46.972Z,15.17
2022-10-21T19:11:15.187Z,14.27
2022-10-21T19:13:43.320Z,15.53
2022-10-21T19:16:11.494Z,15.90
2022-10-21T19:18:39.605Z,14.20
2022-10-21T19:21:09.203Z,13.03
2022-10-21T19:23:37.319Z,13.50
2022-10-21T19:26:06.272Z,12.80
2022-10-21T19:28:34.887Z,13.00
2022-10-21T19:31:02.925Z,12.57
2022-10-21T19:33:31.577Z,11.53
2022-10-21T19:36:00.699Z,10.03
2022-10-21T19:38:43.561Z,12.40
2022-10-21T19:41:13.492Z,10.47
2022-10-21T19:43:41.666Z,9.80
2022-10-21T19:46:09.804Z,9.77
2022-10-21T19:48:38.087Z,8.83
2022-10-21T19:51:07.988Z,10.40
2022-10-21T19:53:39.157Z,9.87
2022-10-21T19:56:08.291Z,9.23
2022-10-21T19:58:39.396Z,10.50
2022-10-21T20:01:10.134Z,9.00
2022-10-21T20:03:38.395Z,9.97
2022-10-21T20:06:07.437Z,10.37
2022-10-21T20:08:35.810Z,9.20
2022-10-21T20:11:07.356Z,9.07
2022-10-21T20:13:35.693Z,10.07
2022-10-21T20:16:03.925Z,10.67
2022-10-21T20:18:32.085Z,11.80
2022-10-21T20:21:00.204Z,11.27
2022-10-21T20:23:28.288Z,10.97
2022-10-21T20:25:57.614Z,10.10
2022-10-21T20:28:27.389Z,10.17
2022-10-21T20:30:58.511Z,10.63
2022-10-21T20:33:26.794Z,9.30
2022-10-21T20:35:54.937Z,9.37
2022-10-21T20:38:23.086Z,10.80
2022-10-21T20:40:54.800Z,10.70
2022-10-21T20:43:22.907Z,10.07
2022-10-21T20:45:52.360Z,10.13
2022-10-21T20:48:20.505Z,9.33
2022-10-21T20:50:48.639Z,12.13
2022-10-21T20:53:16.768Z,10.43
2022-10-21T20:55:45.184Z,10.60
2022-10-21T20:58:13.244Z,11.10
2022-10-21T21:00:44.775Z,12.27
2022-10-21T21:03:15.911Z,11.00
2022-10-21T21:05:44.017Z,11.47
2022-10-21T21:08:12.138Z,10.47
2022-10-21T21:10:40.372Z,12.00
2022-10-21T21:13:08.660Z,12.03
2022-10-21T21:15:36.768Z,11.20
2022-10-21T21:18:11.402Z,13.93
2022-10-21T21:20:41.192Z,12.73
2022-10-21T21:23:09.306Z,13.60
2022-10-21T21:25:37.472Z,15.20
2022-10-21T21:28:05.585Z,14.53
2022-10-21T21:30:33.723Z,13.47
2022-10-21T21:33:02.004Z,13.33
2022-10-21T21:35:30.291Z,12.93
2022-10-21T21:37:59.851Z,13.70
2022-10-21T21:40:29.180Z,13.80
2022-10-21T21:42:57.571Z,14.57
2022-10-21T21:45:25.820Z,14.23
2022-10-21T21:47:54.002Z,14.53
2022-10-21T21:50:22.723Z,13.20
2022-10-21T21:52:50.894Z,12.67
2022-10-21T21:55:20.538Z,13.17
2022-10-21T21:57:48.871Z,12.87
2022-10-21T22:00:17.128Z,13.70
2022-10-21T22:02:45.706Z,13.13
2022-10-21T22:05:14.100Z,14.40
2022-10-21T22:07:42.518Z,12.60
2022-10-21T22:10:11.404Z,13.83
2022-10-21T22:12:40.993Z,11.30
2022-10-21T22:15:13.726Z,11.53
2022-10-21T22:17:49.643Z,12.90
2022-10-21T22:20:17.955Z,11.93
2022-10-21T22:22:46.155Z,14.00
2022-10-21T22:25:15.621Z,14.00
2022-10-21T22:27:45.381Z,12.67
2022-10-21T22:30:15.222Z,13.10
2022-10-21T22:32:43.453Z,12.53
2022-10-21T22:35:11.755Z,12.20
2022-10-21T22:37:40.665Z,14.13
2022-10-21T22:40:09.870Z,13.60
2022-10-21T22:42:38.245Z,12.93
2022-10-21T22:45:09.499Z,13.20
2022-10-21T22:47:38.036Z,14.93
2022-10-21T22:50:07.406Z,13.73
2022-10-21T22:52:35.813Z,14.70
2022-10-21T22:55:04.303Z,15.80
2022-10-21T22:57:32.591Z,15.10
2022-10-21T23:00:00.857Z,14.80
2022-10-21T23:02:30.398Z,15.87
2022-10-21T23:04:58.524Z,15.80
2022-10-21T23:07:26.726Z,16.33
2022-10-21T23:09:54.882Z,13.80
2022-10-21T23:12:23.048Z,15.70
2022-10-21T23:14:51.396Z,15.17
2022-10-21T23:17:19.674Z,12.80
2022-10-21T23:19:49.396Z,15.20
2022-10-21T23:22:17.683Z,14.70
2022-10-21T23:24:45.839Z,14.27
2022-10-21T23:27:14.636Z,14.97
2022-10-21T23:29:43.014Z,15.60
2022-10-21T23:32:11.301Z,14.23
2022-10-21T23:34:39.658Z,15.77
2022-10-21T23:37:09.356Z,12.00
2022-10-21T23:39:37.636Z,14.87
2022-10-21T23:42:05.966Z,12.83
2022-10-21T23:44:34.158Z,13.40
2022-10-21T23:47:02.355Z,11.57
2022-10-21T23:49:30.579Z,14.13
2022-10-21T23:51:59.266Z,12.50
2022-10-21T23:54:28.836Z,14.20
2022-10-21T23:56:57.118Z,13.70
2022-10-21T23:59:25.392Z,15.30
